Time;durP1;ratioP1;P1;durP2;ratioP2;P2;SDS_P1;SDS_P2;PMS_P1;PMS_P2;Temp;Humidity;BMP_temperature;BMP_pressure;BME280_temperature;BME280_humidity;BME280_pressure;Samples;Min_cycle;Max_cycle;Signal;HPM_P1;HPM_P2
2021/08/30 00:02:14;;;;;;;8.88;6.53;;;18.10;98.40;;;;;;5051970;28;20083;-84
2021/08/30 00:04:39;;;;;;;9.18;6.43;;;18.10;98.40;;;;;;5063906;28;20024;-84
2021/08/30 00:07:05;;;;;;;9.60;6.80;;;18.10;98.40;;;;;;5053670;28;20032;-85
2021/08/30 00:09:31;;;;;;;8.73;6.70;;;18.10;98.50;;;;;;5028861;28;20428;-87
2021/08/30 00:11:56;;;;;;;11.88;7.18;;;18.10;98.50;;;;;;5033519;28;20493;-85
2021/08/30 00:14:22;;;;;;;9.10;5.88;;;18.00;98.50;;;;;;5027764;28;20076;-86
2021/08/30 00:16:48;;;;;;;10.63;6.78;;;18.00;98.50;;;;;;5033107;28;20056;-83
2021/08/30 00:19:14;;;;;;;10.30;6.82;;;18.00;98.50;;;;;;5033794;28;20469;-85
2021/08/30 00:21:40;;;;;;;10.27;6.55;;;18.00;98.50;;;;;;5050701;28;20460;-85
2021/08/30 00:24:05;;;;;;;8.80;6.45;;;18.00;98.60;;;;;;5047655;28;20427;-85
2021/08/30 00:26:31;;;;;;;10.40;7.07;;;18.00;98.60;;;;;;5033885;28;20039;-85
2021/08/30 00:28:56;;;;;;;9.52;6.85;;;18.00;98.60;;;;;;5033689;28;20037;-85
2021/08/30 00:31:25;;;;;;;8.57;6.18;;;18.00;98.60;;;;;;5034007;28;20033;-84
2021/08/30 00:33:52;;;;;;;12.73;7.25;;;18.00;98.60;;;;;;5031089;28;20033;-84
2021/08/30 00:36:17;;;;;;;9.20;6.47;;;18.00;98.60;;;;;;5035480;28;20055;-84
2021/08/30 00:38:43;;;;;;;10.38;6.78;;;18.00;98.60;;;;;;5056004;28;20116;-84
2021/08/30 00:41:09;;;;;;;11.75;6.38;;;18.00;98.60;;;;;;5039185;28;20028;-84
2021/08/30 00:43:34;;;;;;;10.63;6.15;;;17.90;98.60;;;;;;5052285;28;20531;-85
2021/08/30 00:46:03;;;;;;;10.23;6.70;;;17.90;98.60;;;;;;5022504;28;20120;-83
2021/08/30 00:48:29;;;;;;;10.73;6.97;;;17.90;98.60;;;;;;5056262;28;20525;-84
2021/08/30 00:50:56;;;;;;;9.18;6.40;;;17.90;98.60;;;;;;5062507;28;20052;-84
2021/08/30 00:53:21;;;;;;;9.70;6.00;;;17.90;98.60;;;;;;5053583;28;20025;-84
2021/08/30 00:55:47;;;;;;;9.18;6.05;;;17.90;98.60;;;;;;5076739;28;20044;-86
2021/08/30 00:58:13;;;;;;;8.88;6.43;;;17.90;98.60;;;;;;5064025;28;20036;-83
2021/08/30 01:00:39;;;;;;;10.02;6.15;;;17.90;98.70;;;;;;5045501;28;20029;-84
2021/08/30 01:03:05;;;;;;;9.85;6.72;;;17.90;98.70;;;;;;5045911;28;20047;-85
2021/08/30 01:05:31;;;;;;;8.85;6.32;;;17.90;98.70;;;;;;5052532;28;20025;-88
2021/08/30 01:08:05;;;;;;;7.70;5.88;;;17.90;98.70;;;;;;5045414;28;20032;-86
2021/08/30 01:10:43;;;;;;;11.13;6.72;;;17.90;98.80;;;;;;5059369;28;20056;-84
2021/08/30 01:13:20;;;;;;;11.20;6.55;;;17.90;98.80;;;;;;5039828;28;20017;-84
2021/08/30 01:15:48;;;;;;;10.98;6.05;;;17.90;98.80;;;;;;5038835;28;20108;-84
2021/08/30 01:18:25;;;;;;;9.43;6.30;;;17.90;98.80;;;;;;5038393;28;20025;-86
2021/08/30 01:20:54;;;;;;;7.93;5.63;;;17.90;98.80;;;;;;5051232;28;20012;-85
2021/08/30 01:23:22;;;;;;;11.60;6.18;;;17.90;98.80;;;;;;5061246;28;20047;-85
2021/08/30 01:25:50;;;;;;;10.52;6.63;;;17.90;98.80;;;;;;5047116;28;20028;-84
2021/08/30 01:28:16;;;;;;;8.93;6.30;;;17.90;98.80;;;;;;5038352;28;20508;-85
2021/08/30 01:30:45;;;;;;;9.38;6.13;;;17.80;98.80;;;;;;5005598;28;20033;-85
2021/08/30 01:33:11;;;;;;;9.93;6.32;;;17.90;98.90;;;;;;5041921;28;20028;-84
2021/08/30 01:35:37;;;;;;;8.27;6.15;;;17.90;98.90;;;;;;5021496;28;20021;-84
2021/08/30 01:38:09;;;;;;;10.05;6.20;;;17.90;98.90;;;;;;5021153;28;20041;-84
2021/08/30 01:40:36;;;;;;;9.27;6.15;;;17.90;98.90;;;;;;5024664;28;20021;-84
2021/08/30 01:43:04;;;;;;;10.38;6.30;;;17.90;98.90;;;;;;5037473;28;20078;-84
2021/08/30 01:45:32;;;;;;;9.00;6.20;;;17.90;98.90;;;;;;5021280;28;20021;-85
2021/08/30 01:48:01;;;;;;;8.70;6.13;;;17.90;98.90;;;;;;5037263;28;20461;-85
2021/08/30 01:50:28;;;;;;;9.05;6.03;;;17.90;98.90;;;;;;5037446;28;20079;-84
2021/08/30 01:52:56;;;;;;;9.38;6.07;;;17.90;98.90;;;;;;5019780;28;20025;-85
2021/08/30 02:00:43;;;;;;;8.10;5.97;;;17.90;98.90;;;;;;5038124;28;20033;-84
2021/08/30 02:03:13;;;;;;;7.90;5.88;;;17.90;98.90;;;;;;5054539;28;20045;-85
2021/08/30 02:05:39;;;;;;;8.77;6.38;;;17.90;98.90;;;;;;5037465;28;20047;-85
2021/08/30 02:08:05;;;;;;;8.25;6.28;;;17.90;99.20;;;;;;5033809;28;20029;-86
2021/08/30 02:10:31;;;;;;;10.55;6.45;;;17.90;98.90;;;;;;5057504;28;20483;-83
2021/08/30 02:12:57;;;;;;;7.60;5.93;;;17.90;98.90;;;;;;5030111;28;20064;-85
2021/08/30 02:15:23;;;;;;;8.85;6.53;;;17.90;98.90;;;;;;5047391;28;20099;-84
2021/08/30 02:17:54;;;;;;;8.52;5.90;;;17.90;98.90;;;;;;5027362;28;20059;-84
2021/08/30 02:20:26;;;;;;;9.50;6.47;;;17.90;98.90;;;;;;5051698;28;20027;-84
2021/08/30 02:22:52;;;;;;;8.75;6.65;;;17.80;98.80;;;;;;5037139;28;20017;-85
2021/08/30 02:25:19;;;;;;;8.73;6.03;;;17.80;98.90;;;;;;5020691;28;20036;-84
2021/08/30 02:27:57;;;;;;;9.60;6.50;;;17.90;98.90;;;;;;5036990;28;20033;-84
2021/08/30 02:30:31;;;;;;;9.98;6.47;;;17.90;98.90;;;;;;5054835;28;20082;-84
2021/08/30 02:33:02;;;;;;;8.25;6.05;;;17.90;98.90;;;;;;5054362;28;20499;-85
2021/08/30 02:35:31;;;;;;;9.80;6.60;;;17.80;98.90;;;;;;5036434;28;20056;-84
2021/08/30 02:37:57;;;;;;;8.52;6.63;;;17.80;98.90;;;;;;5053127;28;20539;-87
2021/08/30 02:40:27;;;;;;;7.95;6.00;;;17.80;98.90;;;;;;5051664;28;20397;-84
2021/08/30 02:42:59;;;;;;;8.38;6.68;;;17.80;98.90;;;;;;5036382;28;20060;-85
2021/08/30 02:45:26;;;;;;;9.60;7.22;;;17.80;98.90;;;;;;5023143;28;20025;-84
2021/08/30 02:47:53;;;;;;;10.13;6.85;;;17.80;98.90;;;;;;5036607;28;20037;-84
2021/08/30 02:50:19;;;;;;;13.65;7.35;;;17.90;98.90;;;;;;5036632;28;20029;-85
2021/08/30 02:52:47;;;;;;;9.23;6.60;;;17.80;98.90;;;;;;5036871;28;20028;-84
2021/08/30 02:55:12;;;;;;;10.73;6.82;;;17.80;98.90;;;;;;5050168;28;20033;-84
2021/08/30 02:57:39;;;;;;;12.52;7.57;;;17.80;98.90;;;;;;5036215;28;20025;-84
2021/08/30 03:00:06;;;;;;;10.10;6.93;;;17.80;98.90;;;;;;5019177;28;20081;-84
2021/08/30 03:02:33;;;;;;;10.75;7.53;;;17.80;98.90;;;;;;5036617;28;20039;-84
2021/08/30 03:05:00;;;;;;;8.48;7.03;;;17.80;98.90;;;;;;5000226;28;20120;-89
2021/08/30 03:07:28;;;;;;;10.50;7.28;;;17.80;98.90;;;;;;5027433;28;20180;-84
2021/08/30 03:09:57;;;;;;;10.45;7.53;;;17.80;98.90;;;;;;5036277;28;20021;-85
2021/08/30 03:12:26;;;;;;;9.18;6.55;;;17.80;98.90;;;;;;5032314;28;20075;-85
2021/08/30 03:14:54;;;;;;;9.95;7.45;;;17.80;98.90;;;;;;5048793;28;20453;-84
2021/08/30 03:17:23;;;;;;;10.18;7.25;;;17.80;98.90;;;;;;5060636;28;20109;-84
2021/08/30 03:19:52;;;;;;;12.10;7.25;;;17.80;98.90;;;;;;5059074;28;20029;-85
2021/08/30 03:22:18;;;;;;;9.65;7.43;;;17.80;98.90;;;;;;5035610;28;20029;-84
2021/08/30 03:24:46;;;;;;;11.63;8.13;;;17.80;98.90;;;;;;5019689;28;20025;-84
2021/08/30 03:27:15;;;;;;;10.57;7.28;;;17.80;98.90;;;;;;5035426;28;20056;-85
2021/08/30 03:29:43;;;;;;;13.32;7.68;;;17.80;98.90;;;;;;5035834;28;20049;-84
2021/08/30 03:32:11;;;;;;;10.00;7.60;;;17.70;98.90;;;;;;5035591;28;20104;-85
2021/08/30 03:34:38;;;;;;;10.07;8.13;;;17.80;99.00;;;;;;5036009;28;20028;-84
2021/08/30 03:37:06;;;;;;;14.70;8.07;;;17.80;99.00;;;;;;5035268;28;20485;-84
2021/08/30 03:39:32;;;;;;;12.15;8.00;;;17.80;98.90;;;;;;5019743;28;20043;-87
2021/08/30 03:41:59;;;;;;;10.88;7.60;;;17.70;98.90;;;;;;5019111;28;20029;-84
2021/08/30 03:44:26;;;;;;;11.82;8.10;;;17.80;99.00;;;;;;5035918;28;20052;-84
2021/08/30 03:46:53;;;;;;;10.23;7.50;;;17.70;99.00;;;;;;5035927;28;20017;-84
2021/08/30 03:49:21;;;;;;;12.07;7.60;;;17.80;99.00;;;;;;5020258;28;20140;-85
2021/08/30 03:51:47;;;;;;;10.70;8.00;;;17.70;99.00;;;;;;5016103;28;20036;-84
2021/08/30 03:54:13;;;;;;;11.63;8.13;;;17.70;99.00;;;;;;5019405;28;20440;-85
2021/08/30 03:56:39;;;;;;;12.15;8.10;;;17.70;99.00;;;;;;5036666;28;20052;-84
2021/08/30 03:59:06;;;;;;;10.40;8.27;;;17.80;99.00;;;;;;5050993;28;20040;-86
2021/08/30 04:01:33;;;;;;;12.80;8.70;;;17.80;99.00;;;;;;5053895;28;20029;-86
2021/08/30 04:04:01;;;;;;;11.18;8.27;;;17.70;99.00;;;;;;5035606;28;20060;-85
2021/08/30 04:06:31;;;;;;;14.80;8.75;;;17.80;99.00;;;;;;5041153;28;20372;-86
2021/08/30 04:08:58;;;;;;;11.85;8.30;;;17.80;99.00;;;;;;5048291;28;20029;-85
2021/08/30 04:11:25;;;;;;;13.48;8.45;;;17.80;99.00;;;;;;5036281;28;20036;-84
2021/08/30 04:13:51;;;;;;;12.43;8.30;;;17.80;99.00;;;;;;5053589;28;20476;-84
2021/08/30 04:16:17;;;;;;;11.95;8.70;;;17.80;99.00;;;;;;5033562;28;20031;-84
2021/08/30 04:18:42;;;;;;;12.63;8.93;;;17.80;99.00;;;;;;5002998;28;20036;-85
2021/08/30 04:21:08;;;;;;;11.70;8.57;;;17.80;99.00;;;;;;5036784;28;20427;-85
2021/08/30 04:23:34;;;;;;;12.48;9.25;;;17.80;99.10;;;;;;5041421;28;20385;-84
2021/08/30 04:25:59;;;;;;;11.10;8.48;;;17.80;99.00;;;;;;5035578;28;20372;-84
2021/08/30 04:28:25;;;;;;;12.57;8.82;;;17.80;99.00;;;;;;5036113;28;20031;-84
2021/08/30 04:30:52;;;;;;;11.23;8.38;;;17.80;99.00;;;;;;5036062;28;20393;-84
2021/08/30 04:33:20;;;;;;;15.07;9.30;;;17.80;99.10;;;;;;5061760;28;20028;-85
2021/08/30 04:35:46;;;;;;;13.60;9.07;;;17.80;99.10;;;;;;5068607;28;20028;-85
2021/08/30 04:38:13;;;;;;;14.50;8.98;;;17.80;99.10;;;;;;5072997;28;20081;-86
2021/08/30 04:40:40;;;;;;;14.07;9.05;;;17.80;99.10;;;;;;5056971;28;20014;-84
2021/08/30 04:43:08;;;;;;;15.60;9.50;;;17.80;99.10;;;;;;5063938;28;20021;-86
2021/08/30 04:45:35;;;;;;;15.05;10.00;;;17.80;99.10;;;;;;5074732;28;20020;-85
2021/08/30 04:48:01;;;;;;;13.60;9.60;;;17.80;99.10;;;;;;5034635;28;20025;-90
2021/08/30 04:50:26;;;;;;;13.93;8.90;;;17.80;99.10;;;;;;5070640;28;20032;-85
2021/08/30 04:52:52;;;;;;;14.02;9.57;;;17.80;99.10;;;;;;5074568;28;20028;-84
2021/08/30 04:55:18;;;;;;;13.07;8.95;;;17.80;99.10;;;;;;5040831;28;20107;-84
2021/08/30 04:57:43;;;;;;;12.55;9.48;;;17.80;99.10;;;;;;5035561;28;20078;-85
2021/08/30 05:00:10;;;;;;;14.13;9.98;;;17.80;99.10;;;;;;5035236;28;20064;-88
2021/08/30 05:02:35;;;;;;;12.70;9.30;;;17.80;99.10;;;;;;5019065;28;20032;-84
2021/08/30 05:05:01;;;;;;;12.60;8.93;;;17.80;99.10;;;;;;5035720;28;20029;-84
2021/08/30 05:07:26;;;;;;;14.32;9.50;;;17.80;99.10;;;;;;5037465;28;20129;-85
2021/08/30 05:09:52;;;;;;;12.07;9.57;;;17.80;99.10;;;;;;5062991;28;20033;-84
2021/08/30 05:12:21;;;;;;;13.27;9.38;;;17.80;99.10;;;;;;5048822;28;20032;-85
2021/08/30 05:14:47;;;;;;;13.10;8.75;;;17.80;99.10;;;;;;5053195;28;20467;-84
2021/08/30 05:17:12;;;;;;;13.93;9.82;;;17.80;99.10;;;;;;5054368;28;20032;-85
2021/08/30 05:19:38;;;;;;;13.95;9.75;;;17.80;99.10;;;;;;5034036;28;20031;-84
2021/08/30 05:22:03;;;;;;;14.82;9.82;;;17.80;99.20;;;;;;5035411;28;20025;-85
2021/08/30 05:24:29;;;;;;;13.80;9.88;;;17.80;99.20;;;;;;5037940;28;20021;-85
2021/08/30 05:26:55;;;;;;;12.25;9.00;;;17.80;99.20;;;;;;5038767;28;20234;-84
2021/08/30 05:29:20;;;;;;;13.45;9.48;;;17.90;99.20;;;;;;5038116;28;20497;-85
2021/08/30 05:31:46;;;;;;;16.80;9.75;;;17.80;99.20;;;;;;5040627;28;20469;-84
2021/08/30 05:34:12;;;;;;;12.88;9.45;;;17.90;99.20;;;;;;5037996;28;20056;-85
2021/08/30 05:36:37;;;;;;;14.43;9.75;;;17.90;99.20;;;;;;5053825;28;20501;-84
2021/08/30 05:39:03;;;;;;;14.10;9.40;;;17.90;99.20;;;;;;5065361;28;20035;-85
2021/08/30 05:41:29;;;;;;;12.05;9.10;;;17.90;99.20;;;;;;5043285;28;20389;-85
2021/08/30 05:43:55;;;;;;;15.23;10.23;;;17.90;99.20;;;;;;5057343;28;20028;-84
2021/08/30 05:46:20;;;;;;;16.83;10.57;;;17.90;99.20;;;;;;5051603;28;20044;-84
2021/08/30 05:48:49;;;;;;;13.00;9.13;;;17.90;99.20;;;;;;5041943;28;20028;-84
2021/08/30 05:51:15;;;;;;;13.85;10.25;;;17.90;99.20;;;;;;5048012;28;20027;-84
2021/08/30 05:53:41;;;;;;;15.05;9.85;;;17.90;99.20;;;;;;5058536;28;20028;-84
2021/08/30 05:56:08;;;;;;;16.02;10.70;;;17.90;99.20;;;;;;5045128;28;20023;-85
2021/08/30 05:58:35;;;;;;;15.20;9.88;;;17.90;99.20;;;;;;5031625;28;20502;-85
2021/08/30 06:01:03;;;;;;;13.55;9.63;;;17.90;99.20;;;;;;5045505;28;20115;-85
2021/08/30 06:03:29;;;;;;;13.75;9.55;;;17.90;99.20;;;;;;5050186;28;20016;-84
2021/08/30 06:05:54;;;;;;;14.52;10.05;;;17.90;99.20;;;;;;5046971;28;20120;-84
2021/08/30 06:08:20;;;;;;;14.63;10.40;;;18.00;99.30;;;;;;5036823;28;20036;-84
2021/08/30 06:10:46;;;;;;;15.82;10.20;;;18.00;99.30;;;;;;5022195;28;20025;-84
2021/08/30 06:13:12;;;;;;;13.95;9.90;;;18.00;99.30;;;;;;5038647;28;20087;-83
2021/08/30 06:15:37;;;;;;;12.90;9.88;;;18.00;99.30;;;;;;5041435;28;20483;-85
2021/08/30 06:18:03;;;;;;;13.30;9.63;;;18.00;99.30;;;;;;5033820;28;20056;-83
2021/08/30 06:20:29;;;;;;;15.60;10.02;;;18.00;99.30;;;;;;5054225;28;20029;-85
2021/08/30 06:22:54;;;;;;;15.57;9.93;;;18.00;99.30;;;;;;5027229;28;20075;-84
2021/08/30 06:25:20;;;;;;;15.70;9.68;;;18.00;99.30;;;;;;5039668;28;20051;-84
2021/08/30 06:27:46;;;;;;;13.38;9.25;;;18.10;99.30;;;;;;5028096;28;20060;-84
2021/08/30 06:30:12;;;;;;;16.08;9.65;;;18.00;99.30;;;;;;5047033;28;20055;-84
2021/08/30 06:32:38;;;;;;;16.63;10.55;;;18.10;99.30;;;;;;5037304;28;20063;-85
2021/08/30 06:35:04;;;;;;;13.82;9.65;;;18.10;99.30;;;;;;5057764;28;20027;-84
2021/08/30 06:37:29;;;;;;;15.55;9.90;;;18.10;99.30;;;;;;5042161;28;20064;-84
2021/08/30 06:39:55;;;;;;;14.50;9.88;;;18.10;99.30;;;;;;5035415;28;20033;-85
2021/08/30 06:42:21;;;;;;;15.95;10.55;;;18.10;99.30;;;;;;5035469;28;20068;-85
2021/08/30 06:44:47;;;;;;;14.07;9.57;;;18.10;99.30;;;;;;5037064;28;20025;-85
2021/08/30 06:47:12;;;;;;;12.73;8.77;;;18.10;99.30;;;;;;5026680;28;20028;-84
2021/08/30 06:49:38;;;;;;;14.10;9.57;;;18.10;99.30;;;;;;5033675;28;20039;-85
2021/08/30 06:52:04;;;;;;;13.52;10.30;;;18.20;99.40;;;;;;5035720;28;20036;-92
2021/08/30 06:54:30;;;;;;;14.65;10.00;;;18.20;99.40;;;;;;5048823;28;20083;-86
2021/08/30 06:56:55;;;;;;;12.85;9.70;;;18.20;99.40;;;;;;5035958;28;20041;-86
2021/08/30 06:59:21;;;;;;;15.65;9.45;;;18.20;99.40;;;;;;5051989;28;20044;-86
2021/08/30 07:01:47;;;;;;;14.98;9.00;;;18.20;99.40;;;;;;5001173;28;20032;-85
2021/08/30 07:04:13;;;;;;;13.73;9.55;;;18.20;99.40;;;;;;5000622;28;20030;-86
2021/08/30 07:06:38;;;;;;;13.73;10.02;;;18.30;99.40;;;;;;5035009;28;20033;-85
2021/08/30 07:09:04;;;;;;;13.05;9.20;;;18.30;99.40;;;;;;5036768;28;20036;-86
2021/08/30 07:11:31;;;;;;;14.00;9.00;;;18.30;99.40;;;;;;5019763;28;20362;-86
2021/08/30 07:13:57;;;;;;;13.20;9.30;;;18.30;99.40;;;;;;5036910;28;20052;-87
2021/08/30 07:16:23;;;;;;;13.75;9.65;;;18.30;99.40;;;;;;5042407;28;20052;-86
2021/08/30 07:18:49;;;;;;;16.75;10.13;;;18.30;99.40;;;;;;5037545;28;20075;-86
2021/08/30 07:21:14;;;;;;;12.25;9.13;;;18.40;99.40;;;;;;5028758;28;20029;-87
2021/08/30 07:23:40;;;;;;;14.73;9.85;;;18.40;99.40;;;;;;5038472;28;20082;-85
2021/08/30 07:26:06;;;;;;;13.55;9.65;;;18.40;99.40;;;;;;5026162;28;20029;-86
2021/08/30 07:28:32;;;;;;;13.73;9.57;;;18.40;99.40;;;;;;5048145;28;20088;-86
2021/08/30 07:30:58;;;;;;;13.95;9.50;;;18.40;99.40;;;;;;5060797;28;20468;-85
2021/08/30 07:33:23;;;;;;;15.85;10.05;;;18.40;99.40;;;;;;5051316;28;20055;-87
2021/08/30 07:35:49;;;;;;;16.02;9.80;;;18.40;99.40;;;;;;5022111;28;20036;-87
2021/08/30 07:38:15;;;;;;;14.60;9.07;;;18.50;99.40;;;;;;5025456;28;20027;-86
2021/08/30 07:40:40;;;;;;;15.45;9.65;;;18.50;99.40;;;;;;5000709;28;20060;-84
2021/08/30 07:43:06;;;;;;;13.00;9.20;;;18.50;99.40;;;;;;5016696;28;20052;-85
2021/08/30 07:45:31;;;;;;;14.00;9.60;;;18.50;99.40;;;;;;5033872;28;20057;-87
2021/08/30 07:48:06;;;;;;;16.45;10.32;;;18.50;99.40;;;;;;5042224;28;20099;-94
2021/08/30 07:50:32;;;;;;;14.13;10.23;;;18.50;99.40;;;;;;5041389;28;20099;-93
2021/08/30 07:52:57;;;;;;;13.35;8.35;;;18.60;99.40;;;;;;5031425;28;20021;-93
2021/08/30 07:55:23;;;;;;;13.10;8.73;;;18.60;99.40;;;;;;5001016;28;20037;-91
2021/08/30 07:57:49;;;;;;;14.63;9.23;;;18.60;99.50;;;;;;5033631;28;20071;-85
2021/08/30 08:00:15;;;;;;;12.70;9.25;;;18.60;99.40;;;;;;4998592;28;20104;-86
2021/08/30 08:02:41;;;;;;;14.82;9.93;;;18.70;99.50;;;;;;5016078;28;20363;-85
2021/08/30 08:05:07;;;;;;;17.25;9.60;;;18.70;99.50;;;;;;5030138;28;20089;-85
2021/08/30 08:07:33;;;;;;;13.27;9.88;;;18.70;99.40;;;;;;5034251;28;20426;-85
2021/08/30 08:09:59;;;;;;;14.43;10.30;;;18.80;99.40;;;;;;5017051;28;20026;-85
2021/08/30 08:12:25;;;;;;;15.23;9.45;;;18.80;99.40;;;;;;5002755;28;20029;-89
2021/08/30 08:14:50;;;;;;;14.18;9.85;;;18.80;99.40;;;;;;5026483;28;20117;-85
2021/08/30 08:17:16;;;;;;;15.88;9.82;;;18.80;99.40;;;;;;5054340;28;20504;-85
2021/08/30 08:19:42;;;;;;;15.20;10.90;;;18.80;99.40;;;;;;5038901;28;20010;-86
2021/08/30 08:22:08;;;;;;;12.93;10.32;;;18.80;99.40;;;;;;5024246;28;20009;-86
2021/08/30 08:24:33;;;;;;;12.35;9.73;;;18.80;99.40;;;;;;5055872;28;20032;-86
2021/08/30 08:27:00;;;;;;;14.82;10.18;;;18.80;99.40;;;;;;5020058;28;20545;-85
2021/08/30 08:29:26;;;;;;;12.70;10.15;;;18.80;99.40;;;;;;5038775;28;20068;-91
2021/08/30 08:31:52;;;;;;;12.93;10.27;;;18.80;99.30;;;;;;5038772;28;20025;-87
2021/08/30 08:34:18;;;;;;;13.38;10.27;;;18.90;99.40;;;;;;4985154;28;20392;-85
2021/08/30 08:36:44;;;;;;;13.27;10.40;;;18.90;99.40;;;;;;5033055;28;20453;-85
2021/08/30 08:39:10;;;;;;;13.55;9.90;;;18.90;99.40;;;;;;5021681;28;20088;-85
2021/08/30 08:41:37;;;;;;;15.50;10.35;;;18.90;99.40;;;;;;5032944;28;20029;-85
2021/08/30 08:44:04;;;;;;;14.30;10.52;;;19.00;99.40;;;;;;5017018;28;20034;-85
2021/08/30 08:46:31;;;;;;;13.05;10.32;;;19.00;99.40;;;;;;4994848;28;20036;-85
2021/08/30 08:48:57;;;;;;;14.23;10.35;;;19.00;99.50;;;;;;5045494;28;20029;-85
2021/08/30 08:51:24;;;;;;;13.52;10.23;;;19.10;99.50;;;;;;5032649;28;20083;-85
2021/08/30 08:53:50;;;;;;;13.75;10.50;;;19.10;99.50;;;;;;5041804;28;20029;-85
2021/08/30 08:56:20;;;;;;;13.75;9.60;;;19.20;99.50;;;;;;5028678;28;20577;-85
2021/08/30 08:58:46;;;;;;;13.20;8.88;;;19.20;99.40;;;;;;5028541;28;20033;-86
2021/08/30 09:01:12;;;;;;;14.88;9.45;;;19.30;99.40;;;;;;5043908;28;20017;-84
2021/08/30 09:03:45;;;;;;;11.77;8.57;;;19.30;99.40;;;;;;5039464;28;20021;-85
2021/08/30 09:06:12;;;;;;;12.25;8.77;;;19.40;99.40;;;;;;5039372;28;20118;-85
2021/08/30 09:08:46;;;;;;;10.35;7.72;;;19.40;99.30;;;;;;5055938;28;20025;-85
2021/08/30 09:11:21;;;;;;;11.32;7.93;;;19.50;99.20;;;;;;5071042;28;20023;-85
2021/08/30 09:13:54;;;;;;;11.38;8.75;;;19.50;99.20;;;;;;5052474;28;20029;-85
2021/08/30 09:16:23;;;;;;;10.38;7.93;;;19.50;99.10;;;;;;5040441;28;20104;-85
2021/08/30 09:18:49;;;;;;;10.15;8.43;;;19.50;99.10;;;;;;5031670;28;20032;-85
2021/08/30 09:21:15;;;;;;;9.93;8.02;;;19.50;99.10;;;;;;5058667;28;20499;-86
2021/08/30 09:23:43;;;;;;;9.55;7.45;;;19.60;99.00;;;;;;5023719;28;20025;-87
2021/08/30 09:26:20;;;;;;;8.32;7.35;;;19.60;99.00;;;;;;5049576;28;20021;-87
2021/08/30 09:28:55;;;;;;;9.80;7.75;;;19.60;98.90;;;;;;5054007;28;20078;-86
2021/08/30 09:31:25;;;;;;;9.73;7.50;;;19.60;98.90;;;;;;5069006;28;20479;-85
2021/08/30 09:33:53;;;;;;;9.98;7.25;;;19.70;98.90;;;;;;5076523;28;20032;-86
2021/08/30 09:36:20;;;;;;;9.38;6.88;;;19.70;98.80;;;;;;5031158;28;20056;-88
2021/08/30 09:38:53;;;;;;;10.90;8.27;;;19.60;98.80;;;;;;5040363;28;20042;-87
2021/08/30 09:41:19;;;;;;;11.25;7.80;;;19.70;98.80;;;;;;5035629;28;20491;-86
2021/08/30 09:43:46;;;;;;;9.73;7.35;;;19.70;98.70;;;;;;5037849;28;20045;-86
2021/08/30 09:46:12;;;;;;;9.10;7.63;;;19.70;98.70;;;;;;5036488;28;20025;-86
2021/08/30 09:48:43;;;;;;;10.38;8.05;;;19.70;98.70;;;;;;5055686;28;20056;-87
2021/08/30 09:51:09;;;;;;;9.13;7.22;;;19.80;98.70;;;;;;5038475;28;20461;-87
2021/08/30 09:53:35;;;;;;;10.38;7.43;;;19.80;98.70;;;;;;5055118;28;20075;-88
2021/08/30 09:56:01;;;;;;;9.57;7.25;;;19.80;98.60;;;;;;5032230;28;20025;-87
2021/08/30 09:58:27;;;;;;;9.27;6.88;;;19.90;98.60;;;;;;5049738;28;20123;-90
2021/08/30 10:00:59;;;;;;;8.98;6.85;;;19.90;98.50;;;;;;5053601;28;20024;-87
2021/08/30 10:03:30;;;;;;;10.77;6.60;;;19.90;98.50;;;;;;5024394;28;20021;-87
2021/08/30 10:05:57;;;;;;;9.07;7.05;;;20.00;98.50;;;;;;5043582;28;20032;-87
2021/08/30 10:08:24;;;;;;;10.23;6.93;;;20.00;98.40;;;;;;5036435;28;20029;-87
2021/08/30 10:10:50;;;;;;;9.05;6.68;;;20.10;98.40;;;;;;5038211;28;20035;-87
2021/08/30 10:13:19;;;;;;;9.10;6.50;;;20.10;98.30;;;;;;5036495;28;20033;-88
2021/08/30 10:15:49;;;;;;;7.63;6.40;;;20.10;98.30;;;;;;5030937;28;20048;-87
2021/08/30 10:18:20;;;;;;;9.77;6.85;;;20.10;98.30;;;;;;5031351;28;20116;-88
2021/08/30 10:20:49;;;;;;;7.82;6.47;;;20.20;98.30;;;;;;5048597;28;20033;-87
2021/08/30 10:23:19;;;;;;;8.18;6.43;;;20.20;98.30;;;;;;5021085;28;20033;-86
2021/08/30 10:25:59;;;;;;;8.73;6.97;;;20.20;98.30;;;;;;5017007;28;20029;-87
2021/08/30 10:28:37;;;;;;;8.98;6.68;;;20.30;98.30;;;;;;5027571;28;20385;-87
2021/08/30 10:31:16;;;;;;;8.02;6.38;;;20.30;98.20;;;;;;5020744;28;20478;-87
2021/08/30 10:33:47;;;;;;;9.70;6.97;;;20.30;98.10;;;;;;5046847;28;20381;-87
2021/08/30 10:36:14;;;;;;;8.50;6.80;;;20.40;98.00;;;;;;5040998;28;20072;-87
2021/08/30 10:38:41;;;;;;;9.38;6.25;;;20.40;98.00;;;;;;5053255;28;20025;-88
2021/08/30 10:41:17;;;;;;;9.07;6.28;;;20.50;98.10;;;;;;5054855;28;20032;-88
2021/08/30 10:43:47;;;;;;;8.77;6.57;;;20.50;98.00;;;;;;5033760;28;20021;-87
2021/08/30 10:46:16;;;;;;;8.43;6.35;;;20.60;97.90;;;;;;5000784;28;20033;-87
2021/08/30 10:48:50;;;;;;;8.18;5.97;;;20.60;97.90;;;;;;5043940;28;20084;-87
2021/08/30 10:51:18;;;;;;;8.18;6.05;;;20.70;97.90;;;;;;5036535;28;20021;-87
2021/08/30 10:54:14;;;;;;;9.38;6.25;;;20.70;97.80;;;;;;5043580;28;20023;-87
2021/08/30 10:56:41;;;;;;;7.75;6.00;;;20.70;97.70;;;;;;5018597;28;20053;-88
2021/08/30 10:59:07;;;;;;;9.10;6.28;;;20.70;97.70;;;;;;5053492;28;20393;-88
2021/08/30 11:01:51;;;;;;;8.50;6.38;;;20.70;97.70;;;;;;5064220;28;20037;-88
2021/08/30 11:04:27;;;;;;;8.50;6.20;;;20.80;97.50;;;;;;5052900;28;20488;-88
2021/08/30 11:06:55;;;;;;;8.20;6.30;;;20.80;97.40;;;;;;5035095;28;20056;-87
2021/08/30 11:09:20;;;;;;;7.82;6.60;;;20.90;97.20;;;;;;5021031;28;20037;-86
2021/08/30 11:11:49;;;;;;;7.20;5.65;;;21.00;97.10;;;;;;5036220;28;20485;-86
2021/08/30 11:14:15;;;;;;;7.50;5.95;;;21.00;97.00;;;;;;5043784;28;20035;-87
2021/08/30 11:16:41;;;;;;;7.15;5.55;;;21.10;97.10;;;;;;5022245;28;20034;-89
2021/08/30 11:19:08;;;;;;;9.60;5.90;;;21.10;96.90;;;;;;5048685;28;20086;-88
2021/08/30 11:21:36;;;;;;;7.55;5.80;;;21.20;96.90;;;;;;5020747;28;20086;-86
2021/08/30 11:24:03;;;;;;;7.93;5.30;;;21.20;96.80;;;;;;5047880;28;20136;-87
2021/08/30 11:26:29;;;;;;;7.13;5.57;;;21.20;96.70;;;;;;5036973;28;20112;-87
2021/08/30 11:29:02;;;;;;;7.15;5.80;;;21.20;96.60;;;;;;5036701;28;20036;-87
2021/08/30 11:31:30;;;;;;;7.68;5.88;;;21.30;96.50;;;;;;5054665;28;20017;-87
2021/08/30 11:33:56;;;;;;;7.25;5.10;;;21.40;96.40;;;;;;5037175;28;20383;-87
2021/08/30 11:36:22;;;;;;;7.70;5.50;;;21.40;96.30;;;;;;5037189;28;20132;-85
2021/08/30 11:38:56;;;;;;;6.50;5.15;;;21.40;96.10;;;;;;5018881;28;20037;-89
2021/08/30 11:41:22;;;;;;;7.05;5.03;;;21.40;96.00;;;;;;5056144;28;20024;-88
2021/08/30 11:44:00;;;;;;;6.68;4.95;;;21.50;95.90;;;;;;5033178;28;20489;-88
2021/08/30 11:46:29;;;;;;;6.75;5.07;;;21.50;95.80;;;;;;5045561;28;20091;-85
2021/08/30 11:48:57;;;;;;;6.22;4.97;;;21.50;95.60;;;;;;5067787;28;20035;-85
2021/08/30 11:51:26;;;;;;;6.38;4.78;;;21.60;95.50;;;;;;5058064;28;20020;-84
2021/08/30 11:53:53;;;;;;;5.75;4.85;;;21.60;95.50;;;;;;5044047;28;20131;-86
2021/08/30 11:56:21;;;;;;;6.57;5.03;;;21.60;95.50;;;;;;5055478;28;20047;-84
2021/08/30 11:58:47;;;;;;;6.75;5.32;;;21.60;95.50;;;;;;5059436;28;20009;-90
2021/08/30 12:01:17;;;;;;;5.68;4.65;;;21.60;95.40;;;;;;5057981;28;20013;-87
2021/08/30 12:03:44;;;;;;;6.70;5.13;;;21.70;95.40;;;;;;5074023;28;20009;-85
2021/08/30 12:06:18;;;;;;;6.97;5.13;;;21.70;95.20;;;;;;5041656;28;20111;-87
2021/08/30 12:08:51;;;;;;;5.70;4.60;;;21.70;95.20;;;;;;5055877;28;20033;-88
2021/08/30 12:11:18;;;;;;;5.95;4.45;;;21.70;95.20;;;;;;5072953;28;20017;-86
2021/08/30 12:13:57;;;;;;;6.38;4.53;;;21.70;95.10;;;;;;5038572;28;20025;-84
2021/08/30 12:16:24;;;;;;;5.85;4.90;;;21.80;94.90;;;;;;5044529;28;20083;-84
2021/08/30 12:18:52;;;;;;;5.90;4.15;;;21.90;94.70;;;;;;5038238;28;20041;-84
2021/08/30 12:21:37;;;;;;;5.45;4.43;;;21.90;94.50;;;;;;5032811;28;20056;-85
2021/08/30 12:24:04;;;;;;;5.85;4.75;;;21.90;94.40;;;;;;5051188;28;20030;-85
2021/08/30 12:26:29;;;;;;;6.80;4.95;;;22.00;94.30;;;;;;5051613;28;20021;-84
2021/08/30 12:28:59;;;;;;;6.63;4.75;;;22.00;94.20;;;;;;5037950;28;20374;-84
2021/08/30 12:31:31;;;;;;;5.47;4.43;;;22.10;94.20;;;;;;5037587;28;20048;-85
2021/08/30 12:34:02;;;;;;;5.60;4.25;;;22.20;94.10;;;;;;5052065;28;20268;-84
2021/08/30 12:36:28;;;;;;;5.32;4.35;;;22.30;93.90;;;;;;5047614;28;20127;-85
2021/08/30 12:39:03;;;;;;;5.78;4.60;;;22.30;93.70;;;;;;5063114;28;20037;-84
2021/08/30 12:41:29;;;;;;;5.22;4.38;;;22.40;93.60;;;;;;5048885;28;20037;-85
2021/08/30 12:43:54;;;;;;;5.10;4.07;;;22.50;93.50;;;;;;5051126;28;20469;-85
2021/08/30 12:46:20;;;;;;;5.70;4.43;;;22.50;93.50;;;;;;5041105;28;20439;-86
2021/08/30 12:48:46;;;;;;;5.22;4.20;;;22.60;93.30;;;;;;5037398;28;20029;-84